createdAt,value
2018-05-01T00:00:54.058Z,10.00
2018-05-01T00:05:55.057Z,9.90
2018-05-01T00:10:56.065Z,9.80
2018-05-01T00:15:57.105Z,9.70
2018-05-01T00:20:58.824Z,9.60
2018-05-01T00:25:59.848Z,9.50
2018-05-01T00:31:00.869Z,9.50
2018-05-01T00:36:01.880Z,9.40
2018-05-01T00:41:02.890Z,9.40
2018-05-01T00:46:03.902Z,9.30
2018-05-01T00:51:04.958Z,9.00
2018-05-01T00:56:05.974Z,8.90
2018-05-01T01:01:06.965Z,8.60
2018-05-01T01:06:07.994Z,8.50
2018-05-01T01:11:08.989Z,8.40
2018-05-01T01:16:09.990Z,8.10
2018-05-01T01:21:11.007Z,8.10
2018-05-01T01:26:12.001Z,7.90
2018-05-01T01:31:13.012Z,7.80
2018-05-01T01:36:13.919Z,7.80
2018-05-01T01:41:14.790Z,7.70
2018-05-01T01:46:15.708Z,7.50
2018-05-01T01:51:16.580Z,7.50
2018-05-01T01:56:17.449Z,7.40
2018-05-01T02:01:18.325Z,7.30
2018-05-01T02:06:19.925Z,7.30
2018-05-01T02:11:20.797Z,7.20
2018-05-01T02:16:21.664Z,7.20
2018-05-01T02:21:22.533Z,7.30
2018-05-01T02:26:23.463Z,7.20
2018-05-01T02:31:24.330Z,7.10
2018-05-01T02:36:25.214Z,7.10
2018-05-01T02:41:26.819Z,6.90
2018-05-01T02:46:27.701Z,6.90
2018-05-01T02:51:28.580Z,6.90
2018-05-01T02:56:29.449Z,6.90
2018-05-01T03:01:31.053Z,7.10
2018-05-01T03:06:31.930Z,7.00
2018-05-01T03:11:32.800Z,7.10
2018-05-01T03:16:33.665Z,7.20
2018-05-01T03:21:34.538Z,7.20
2018-05-01T03:26:35.406Z,7.20
2018-05-01T03:31:37.020Z,7.20
2018-05-01T03:36:37.878Z,7.10
2018-05-01T03:41:38.749Z,7.20
2018-05-01T03:46:39.609Z,7.20
2018-05-01T03:51:40.473Z,7.30
2018-05-01T03:56:41.334Z,7.20
2018-05-01T04:01:42.190Z,7.20
2018-05-01T04:06:43.807Z,7.30
2018-05-01T04:11:44.666Z,7.20
2018-05-01T04:16:45.530Z,7.30
2018-05-01T04:21:46.393Z,7.20
2018-05-01T04:26:47.257Z,7.10
2018-05-01T04:31:48.122Z,7.00
2018-05-01T04:36:49.011Z,6.90
2018-05-01T04:41:50.637Z,7.00
2018-05-01T04:46:51.498Z,7.00
2018-05-01T04:51:52.378Z,7.00
2018-05-01T04:56:53.994Z,7.00
2018-05-01T05:01:54.862Z,7.00
2018-05-01T05:06:55.731Z,7.10
2018-05-01T05:11:56.602Z,7.20
2018-05-01T05:16:58.229Z,7.20
2018-05-01T05:21:59.097Z,7.10
2018-05-01T05:26:59.974Z,7.10
2018-05-01T05:32:00.847Z,7.20
2018-05-01T05:37:02.451Z,8.20
2018-05-01T05:42:03.310Z,8.10
2018-05-01T05:47:04.330Z,8.50
2018-05-01T05:52:05.933Z,9.20
2018-05-01T05:57:06.827Z,9.10
2018-05-01T06:02:07.701Z,9.10
2018-05-01T06:07:09.342Z,8.60
2018-05-01T06:12:10.218Z,8.60
2018-05-01T06:17:11.191Z,8.50
2018-05-01T06:22:12.839Z,8.40
2018-05-01T06:27:13.714Z,8.40
2018-05-01T06:32:14.581Z,8.20
2018-05-01T06:37:16.205Z,8.10
2018-05-01T06:42:17.071Z,8.00
2018-05-01T06:47:17.940Z,8.00
2018-05-01T06:52:18.814Z,8.00
2018-05-01T06:57:20.438Z,8.20
2018-05-01T07:02:21.329Z,8.20
2018-05-01T07:07:22.222Z,8.80
2018-05-01T07:12:23.105Z,8.50
2018-05-01T07:17:25.681Z,8.40
2018-05-01T07:22:26.991Z,8.30
2018-05-01T07:27:27.872Z,8.30
2018-05-01T07:32:29.510Z,8.40
2018-05-01T07:37:30.422Z,8.30
2018-05-01T07:42:31.310Z,8.30
2018-05-01T07:47:32.178Z,8.30
2018-05-01T07:52:33.051Z,8.30
2018-05-01T07:57:33.969Z,8.20
2018-05-01T08:02:34.891Z,8.20
2018-05-01T08:07:35.802Z,8.30
2018-05-01T08:12:36.669Z,8.30
2018-05-01T08:17:37.563Z,8.30
2018-05-01T08:22:38.426Z,8.20
2018-05-01T08:27:39.300Z,8.30
2018-05-01T08:32:40.169Z,8.40
2018-05-01T08:37:41.108Z,8.50
2018-05-01T08:42:41.927Z,8.50
2018-05-01T08:47:42.790Z,8.80
2018-05-01T08:52:43.661Z,9.10
2018-05-01T08:57:44.537Z,9.50
2018-05-01T09:02:45.419Z,10.10
2018-05-01T09:07:47.017Z,10.70
2018-05-01T09:12:47.886Z,10.60
2018-05-01T09:17:48.870Z,9.80
2018-05-01T09:22:49.680Z,9.70
2018-05-01T09:27:50.553Z,9.70
2018-05-01T09:32:51.426Z,9.70
2018-05-01T09:37:52.322Z,9.90
2018-05-01T09:42:53.942Z,11.60
2018-05-01T09:47:54.849Z,11.50
2018-05-01T09:52:56.621Z,11.80
2018-05-01T09:57:58.386Z,12.20
2018-05-01T10:02:59.386Z,12.10
2018-05-01T10:08:00.373Z,13.00
2018-05-01T10:13:01.370Z,11.70
2018-05-01T10:18:03.122Z,12.00
2018-05-01T10:23:04.125Z,12.00
2018-05-01T10:28:05.161Z,11.60
2018-05-01T10:33:06.958Z,11.20
2018-05-01T10:38:07.937Z,11.10
2018-05-01T10:43:08.936Z,11.20
2018-05-01T10:48:09.917Z,11.20
2018-05-01T10:53:11.649Z,11.10
2018-05-01T10:58:12.658Z,11.10
2018-05-01T11:03:13.656Z,12.20
2018-05-01T11:08:14.642Z,12.50
2018-05-01T11:13:15.646Z,12.00
2018-05-01T11:18:17.583Z,13.10
2018-05-01T11:23:18.717Z,13.00
2018-05-01T11:28:19.701Z,13.40
2018-05-01T11:33:20.683Z,13.60
2018-05-01T11:38:22.419Z,13.50
2018-05-01T11:43:23.411Z,13.50
2018-05-01T11:48:25.146Z,12.60
2018-05-01T11:53:26.135Z,12.50
2018-05-01T11:58:27.889Z,12.80
2018-05-01T12:03:28.904Z,12.70
2018-05-01T12:08:29.906Z,12.40
2018-05-01T12:13:30.904Z,12.70
2018-05-01T12:18:32.689Z,14.10
2018-05-01T12:23:33.651Z,14.10
2018-05-01T12:28:34.641Z,13.30
2018-05-01T12:33:35.646Z,13.80
2018-05-01T12:38:36.654Z,14.20
2018-05-01T12:43:37.679Z,13.70
2018-05-01T12:48:38.685Z,14.30
2018-05-01T12:53:39.685Z,14.40
2018-05-01T12:58:40.667Z,14.50
2018-05-01T13:03:41.657Z,14.40
2018-05-01T13:08:42.657Z,13.40
2018-05-01T13:13:43.650Z,14.50
2018-05-01T13:18:44.635Z,14.10
2018-05-01T13:23:45.642Z,14.00
2018-05-01T13:28:46.627Z,14.30
2018-05-01T13:33:47.614Z,14.30
2018-05-01T13:38:48.688Z,14.50
2018-05-01T13:43:50.417Z,13.70
2018-05-01T13:48:51.450Z,13.60
2018-05-01T13:53:52.455Z,14.00
2018-05-01T13:58:53.462Z,14.60
2018-05-01T14:03:54.480Z,14.10
2018-05-01T14:08:55.510Z,14.40
2018-05-01T14:13:56.531Z,14.60
2018-05-01T14:18:57.513Z,14.50
2018-05-01T14:23:58.497Z,14.70
2018-05-01T14:28:59.484Z,14.90
2018-05-01T14:34:01.216Z,14.80
2018-05-01T14:39:02.234Z,14.70
2018-05-01T14:44:03.238Z,14.10
2018-05-01T14:49:04.241Z,14.30
2018-05-01T14:54:05.231Z,14.60
2018-05-01T14:59:06.239Z,14.30
2018-05-01T15:04:08.062Z,14.30
2018-05-01T15:09:09.060Z,14.20
2018-05-01T15:14:10.054Z,13.90
2018-05-01T15:19:11.030Z,14.40
2018-05-01T15:24:12.028Z,14.40
2018-05-01T15:29:13.018Z,14.20
2018-05-01T15:34:14.018Z,14.30
2018-05-01T15:39:15.019Z,14.30
2018-05-01T15:44:16.770Z,14.30
2018-05-01T15:49:17.772Z,14.20
2018-05-01T15:54:18.823Z,14.10
2018-05-01T15:59:19.841Z,14.10
2018-05-01T16:04:20.875Z,14.10
2018-05-01T16:09:21.977Z,14.20
2018-05-01T16:14:23.137Z,14.10
2018-05-01T16:19:24.525Z,14.00
2018-05-01T16:24:25.586Z,14.00
2018-05-01T16:29:27.347Z,13.90
2018-05-01T16:34:28.450Z,13.90
2018-05-01T16:39:29.474Z,13.70
2018-05-01T16:44:31.230Z,13.80
2018-05-01T16:49:32.978Z,13.70
2018-05-01T16:54:33.991Z,13.60
2018-05-01T16:59:35.003Z,13.60
2018-05-01T17:04:35.990Z,13.50
2018-05-01T17:09:37.735Z,13.40
2018-05-01T17:14:38.826Z,13.40
2018-05-01T17:19:39.922Z,13.30
2018-05-01T17:24:40.933Z,13.30
2018-05-01T17:29:42.703Z,13.20
2018-05-01T17:34:43.685Z,13.10
2018-05-01T17:39:45.441Z,13.00
2018-05-01T17:44:46.465Z,12.90
2018-05-01T17:49:47.500Z,13.00
2018-05-01T17:54:48.530Z,13.00
2018-05-01T17:59:50.275Z,12.70
2018-05-01T18:04:51.287Z,12.70
2018-05-01T18:09:52.290Z,12.60
2018-05-01T18:14:53.301Z,12.60
2018-05-01T18:19:54.310Z,12.60
2018-05-01T18:24:55.321Z,12.50
2018-05-01T18:29:56.317Z,12.40
2018-05-01T18:34:57.325Z,12.20
2018-05-01T18:39:58.345Z,12.20
2018-05-01T18:44:59.357Z,12.10
2018-05-01T18:50:00.367Z,12.10
2018-05-01T18:55:01.392Z,11.90
2018-05-01T19:00:02.398Z,11.70
2018-05-01T19:05:04.142Z,11.00
2018-05-01T19:10:05.138Z,10.90
2018-05-01T19:15:06.133Z,10.80
2018-05-01T19:20:07.142Z,10.80
2018-05-01T19:25:08.151Z,10.60
2018-05-01T19:30:09.151Z,10.50
2018-05-01T19:35:10.916Z,10.50
2018-05-01T19:40:11.918Z,10.40
2018-05-01T19:45:12.931Z,10.30
2018-05-01T19:50:13.938Z,10.10
2018-05-01T19:55:14.929Z,10.00
2018-05-01T20:00:15.926Z,9.90
2018-05-01T20:05:16.955Z,9.70
2018-05-01T20:10:18.718Z,9.50
2018-05-01T20:15:19.817Z,9.40
2018-05-01T20:20:20.818Z,9.40
2018-05-01T20:25:21.818Z,9.40
2018-05-01T20:30:23.668Z,9.10
2018-05-01T20:35:24.599Z,9.10
2018-05-01T20:40:25.606Z,9.00
2018-05-01T20:45:27.354Z,8.90
2018-05-01T20:50:28.434Z,8.80
2018-05-01T20:55:29.475Z,8.80
2018-05-01T21:00:30.481Z,8.80
2018-05-01T21:05:31.514Z,8.70
2018-05-01T21:10:32.527Z,8.60
2018-05-01T21:15:33.575Z,8.40
2018-05-01T21:20:34.630Z,8.40
2018-05-01T21:25:35.663Z,8.30
2018-05-01T21:30:36.841Z,8.40
2018-05-01T21:35:37.849Z,8.30
2018-05-01T21:40:38.851Z,8.20
2018-05-01T21:45:40.717Z,8.00
2018-05-01T21:50:42.486Z,8.10
2018-05-01T21:55:44.276Z,8.00
2018-05-01T22:00:46.018Z,8.00
2018-05-01T22:05:47.014Z,7.90
2018-05-01T22:10:48.820Z,7.90
2018-05-01T22:15:49.833Z,7.80
2018-05-01T22:20:51.571Z,7.90
2018-05-01T22:25:52.576Z,7.80
2018-05-01T22:30:54.368Z,7.80
2018-05-01T22:35:56.886Z,7.80
2018-05-01T22:40:57.884Z,7.70
2018-05-01T22:45:58.938Z,7.70
2018-05-01T22:51:00.751Z,7.60
2018-05-01T22:56:01.899Z,7.50
2018-05-01T23:01:03.730Z,7.50
2018-05-01T23:06:04.749Z,7.40
2018-05-01T23:11:05.802Z,7.40
2018-05-01T23:16:06.810Z,7.40
2018-05-01T23:21:07.846Z,7.30
2018-05-01T23:26:08.861Z,7.30
2018-05-01T23:31:10.598Z,7.10
2018-05-01T23:36:11.622Z,7.10
2018-05-01T23:41:12.643Z,7.10
2018-05-01T23:46:13.647Z,6.90
2018-05-01T23:51:14.653Z,6.60
2018-05-01T23:56:15.662Z,6.50
